»·PEaware :: N151L KBUR-KIFP

N151L :: KBUR-KIFP

FLIGHT INFORMATION

Flight Status: Arrived
Operator: Privately registered:
United States
More flights under this callsign
Pilot: Dean B. (20222)
Aircraft: CIRRUS VISIONJET
(SF50)
More flights by this aircraft type
Origin: KBUR Bob Hope-Burbank
United States
Destination: KIFP Laughlin/Bullhead Intl
United States
More flights between these airports :: More routes between these airports
Route: +
File this flight plan on PilotEdge
Remarks:
Altitude:
(Current/Filed)
15,000ft
Speed:
(Current/Filed)
0kts
Departed: 24-Sep-18 07:49 PM
Arrived: 24-Sep-18 08:46 PM
Distance/Time
Traveled:
196nm/0:57
Distance/Time
To Go:
Arrived

Flight Plot

Page will automatically refresh every two minutes.

Flight plan parsing failed; only flown route is shown


Map Options




Map Legend


Flown Route
Filed Route
Departure Airport
Arrival Airport
Navaid (VOR, NDB)
Fix

Horizontal Profiles

Position Reports

Time Latitude Longitude Heading Altitude Ground
Speed
24-Sep-18 19:38 34.200203 -118.358745 263 734ft 0kts
24-Sep-18 19:39 34.200203 -118.358745 263 734ft 0kts
24-Sep-18 19:40 34.200203 -118.358745 263 734ft 0kts
24-Sep-18 19:41 34.200203 -118.358745 263 734ft 0kts
24-Sep-18 19:42 34.200942 -118.359420 338 734ft 5kts
24-Sep-18 19:43 34.202099 -118.359797 354 734ft 8kts
24-Sep-18 19:44 34.203581 -118.359206 347 734ft 6kts
24-Sep-18 19:45 34.205524 -118.359750 346 734ft 7kts
24-Sep-18 19:46 34.207688 -118.360346 346 734ft 8kts
24-Sep-18 19:47 34.209623 -118.360884 348 734ft 6kts
24-Sep-18 19:48 34.211108 -118.361088 68 734ft 0kts
24-Sep-18 19:49 34.211108 -118.361088 68 734ft 0kts
24-Sep-18 19:50 34.210755 -118.360042 168 734ft 14kts
24-Sep-18 19:51 34.180277 -118.348732 132 2209ft 163kts
24-Sep-18 19:52 34.196719 -118.308157 42 5438ft 157kts
24-Sep-18 19:53 34.228222 -118.251837 67 6018ft 207kts
24-Sep-18 19:54 34.246634 -118.190644 71 7598ft 186kts
24-Sep-18 19:55 34.261890 -118.134575 72 9117ft 170kts
24-Sep-18 19:56 34.276179 -118.081232 72 10407ft 165kts
24-Sep-18 19:57 34.290217 -118.028616 72 11597ft 163kts
24-Sep-18 19:58 34.304082 -117.976532 72 12715ft 163kts
24-Sep-18 19:59 34.317881 -117.924584 72 13775ft 162kts
24-Sep-18 20:00 34.331636 -117.872700 72 14795ft 165kts
24-Sep-18 20:01 34.347646 -117.812196 72 15006ft 217kts
24-Sep-18 20:02 34.366857 -117.739444 72 14992ft 230kts
24-Sep-18 20:03 34.386410 -117.665136 72 14991ft 232kts
24-Sep-18 20:04 34.406054 -117.590276 72 14991ft 234kts
24-Sep-18 20:05 34.425698 -117.515245 72 14990ft 234kts
24-Sep-18 20:06 34.445294 -117.440181 72 14991ft 234kts
24-Sep-18 20:07 34.464912 -117.364801 72 14991ft 234kts
24-Sep-18 20:08 34.484357 -117.289918 72 14990ft 234kts
24-Sep-18 20:09 34.503805 -117.214759 72 14990ft 234kts
24-Sep-18 20:10 34.523298 -117.139234 72 14990ft 234kts
24-Sep-18 20:11 34.542703 -117.063837 72 14990ft 234kts
24-Sep-18 20:12 34.562135 -116.988111 72 14990ft 234kts
24-Sep-18 20:13 34.581399 -116.912834 72 14990ft 234kts
24-Sep-18 20:14 34.600735 -116.837070 72 14991ft 234kts
24-Sep-18 20:15 34.618113 -116.768781 72 14990ft 234kts
24-Sep-18 20:16 34.637282 -116.693166 72 14990ft 234kts
24-Sep-18 20:17 34.656429 -116.617530 72 14990ft 235kts
24-Sep-18 20:18 34.675540 -116.541780 72 14990ft 235kts
24-Sep-18 20:19 34.694637 -116.465851 72 14990ft 235kts
24-Sep-18 20:20 34.713661 -116.389997 72 14990ft 235kts
24-Sep-18 20:21 34.732603 -116.314280 73 14991ft 235kts
24-Sep-18 20:22 34.751523 -116.238391 73 14990ft 235kts
24-Sep-18 20:23 34.770426 -116.162366 73 14990ft 235kts
24-Sep-18 20:24 34.789308 -116.086190 73 14990ft 235kts
24-Sep-18 20:25 34.808093 -116.010179 73 14990ft 235kts
24-Sep-18 20:26 34.826877 -115.933949 73 14990ft 235kts
24-Sep-18 20:27 34.845520 -115.858060 73 14990ft 235kts
24-Sep-18 20:28 34.864192 -115.781831 73 14990ft 235kts
24-Sep-18 20:29 34.882876 -115.705320 73 14990ft 235kts
24-Sep-18 20:30 34.901420 -115.629153 73 14990ft 235kts
24-Sep-18 20:31 34.919979 -115.552718 73 14990ft 235kts
24-Sep-18 20:32 34.938422 -115.476480 73 14990ft 235kts
24-Sep-18 20:33 34.956774 -115.400413 73 14990ft 235kts
24-Sep-18 20:34 34.975074 -115.324336 73 14990ft 235kts
24-Sep-18 20:35 34.993417 -115.247820 73 14990ft 235kts
24-Sep-18 20:36 35.011676 -115.171485 73 14991ft 235kts
24-Sep-18 20:37 35.029960 -115.094764 73 14990ft 235kts
24-Sep-18 20:38 35.048146 -115.018214 73 14991ft 235kts
24-Sep-18 20:39 35.066386 -114.941205 73 14790ft 242kts
24-Sep-18 20:40 35.085436 -114.860517 73 11859ft 263kts
24-Sep-18 20:41 35.105085 -114.777031 73 8528ft 244kts
24-Sep-18 20:42 35.121936 -114.702778 73 6720ft 220kts
24-Sep-18 20:43 35.157264 -114.656346 3 5936ft 189kts
24-Sep-18 20:44 35.206488 -114.641720 52 5374ft 162kts
24-Sep-18 20:45 35.213166 -114.583970 97 3501ft 169kts
24-Sep-18 20:46 35.184363 -114.561253 176 1331ft 99kts
24-Sep-18 20:47 35.161567 -114.559906 175 642ft 58kts
24-Sep-18 20:48 35.155899 -114.558886 95 665ft 1kts
24-Sep-18 20:49 35.156036 -114.556467 52 686ft 7kts
24-Sep-18 20:50 35.159511 -114.556585 37 678ft 4kts
24-Sep-18 20:51 35.159822 -114.556420 280 679ft 0kts

Navigation Log

Ident Type
Flight plan parsing failed, navigation log unavailable